sensor_id;sensor_type;location;lat;lon;timestamp;temperature;humidity
1347;DHT22;667;48.796;9.480;2023-09-07T00:01:12;18.70;75.10
1347;DHT22;667;48.796;9.480;2023-09-07T00:03:38;18.70;74.90
1347;DHT22;667;48.796;9.480;2023-09-07T00:06:06;18.70;74.80
1347;DHT22;667;48.796;9.480;2023-09-07T00:08:32;18.70;75.00
1347;DHT22;667;48.796;9.480;2023-09-07T00:11:05;18.60;74.90
1347;DHT22;667;48.796;9.480;2023-09-07T00:13:32;18.70;75.10
1347;DHT22;667;48.796;9.480;2023-09-07T00:16:02;18.60;74.90
1347;DHT22;667;48.796;9.480;2023-09-07T00:18:29;18.60;75.00
1347;DHT22;667;48.796;9.480;2023-09-07T00:20:54;18.60;74.90
1347;DHT22;667;48.796;9.480;2023-09-07T00:23:20;18.60;74.90
1347;DHT22;667;48.796;9.480;2023-09-07T00:25:46;18.50;74.90
1347;DHT22;667;48.796;9.480;2023-09-07T00:28:12;18.60;75.00
1347;DHT22;667;48.796;9.480;2023-09-07T00:30:37;18.50;74.80
1347;DHT22;667;48.796;9.480;2023-09-07T00:33:03;18.50;75.10
1347;DHT22;667;48.796;9.480;2023-09-07T00:35:29;18.40;75.00
1347;DHT22;667;48.796;9.480;2023-09-07T00:37:55;18.40;75.00
1347;DHT22;667;48.796;9.480;2023-09-07T00:40:21;18.40;75.10
1347;DHT22;667;48.796;9.480;2023-09-07T00:42:47;18.40;75.20
1347;DHT22;667;48.796;9.480;2023-09-07T00:45:12;18.40;75.20
1347;DHT22;667;48.796;9.480;2023-09-07T00:47:38;18.40;75.10
1347;DHT22;667;48.796;9.480;2023-09-07T00:50:07;18.30;75.20
1347;DHT22;667;48.796;9.480;2023-09-07T00:52:34;18.30;75.10
1347;DHT22;667;48.796;9.480;2023-09-07T00:55:02;18.30;75.20
1347;DHT22;667;48.796;9.480;2023-09-07T00:57:29;18.30;75.30
1347;DHT22;667;48.796;9.480;2023-09-07T00:59:55;18.20;75.30
1347;DHT22;667;48.796;9.480;2023-09-07T01:02:20;18.20;75.50
1347;DHT22;667;48.796;9.480;2023-09-07T01:04:46;18.20;75.40
1347;DHT22;667;48.796;9.480;2023-09-07T01:07:18;18.20;75.80
1347;DHT22;667;48.796;9.480;2023-09-07T01:09:47;18.20;75.60
1347;DHT22;667;48.796;9.480;2023-09-07T01:12:15;18.20;75.60
1347;DHT22;667;48.796;9.480;2023-09-07T01:14:41;18.10;75.50
1347;DHT22;667;48.796;9.480;2023-09-07T01:17:07;18.10;75.70
1347;DHT22;667;48.796;9.480;2023-09-07T01:19:33;18.10;75.70
1347;DHT22;667;48.796;9.480;2023-09-07T01:21:59;18.10;75.70
1347;DHT22;667;48.796;9.480;2023-09-07T01:24:26;18.10;75.70
1347;DHT22;667;48.796;9.480;2023-09-07T01:26:56;18.10;75.70
1347;DHT22;667;48.796;9.480;2023-09-07T01:29:22;18.10;75.70
1347;DHT22;667;48.796;9.480;2023-09-07T01:31:48;18.10;75.80
1347;DHT22;667;48.796;9.480;2023-09-07T01:34:14;18.00;75.80
1347;DHT22;667;48.796;9.480;2023-09-07T01:36:40;18.00;75.80
1347;DHT22;667;48.796;9.480;2023-09-07T01:39:06;18.00;75.90
1347;DHT22;667;48.796;9.480;2023-09-07T01:41:32;18.00;75.90
1347;DHT22;667;48.796;9.480;2023-09-07T01:43:58;18.00;75.90
1347;DHT22;667;48.796;9.480;2023-09-07T01:46:24;18.00;76.00
1347;DHT22;667;48.796;9.480;2023-09-07T01:48:50;18.00;75.90
1347;DHT22;667;48.796;9.480;2023-09-07T01:51:15;17.90;75.80
1347;DHT22;667;48.796;9.480;2023-09-07T01:53:41;17.90;75.80
1347;DHT22;667;48.796;9.480;2023-09-07T01:56:06;18.00;76.00
1347;DHT22;667;48.796;9.480;2023-09-07T01:58:33;17.90;75.90
1347;DHT22;667;48.796;9.480;2023-09-07T02:00:59;17.90;75.90
1347;DHT22;667;48.796;9.480;2023-09-07T02:03:25;17.90;75.90
1347;DHT22;667;48.796;9.480;2023-09-07T02:05:52;17.90;76.00
1347;DHT22;667;48.796;9.480;2023-09-07T02:08:17;17.90;76.10
1347;DHT22;667;48.796;9.480;2023-09-07T02:10:43;17.90;75.90
1347;DHT22;667;48.796;9.480;2023-09-07T02:13:09;17.80;75.80
1347;DHT22;667;48.796;9.480;2023-09-07T02:15:37;17.80;75.80
1347;DHT22;667;48.796;9.480;2023-09-07T02:18:04;17.80;75.80
1347;DHT22;667;48.796;9.480;2023-09-07T02:20:31;17.80;75.80
1347;DHT22;667;48.796;9.480;2023-09-07T02:22:57;17.80;75.90
1347;DHT22;667;48.796;9.480;2023-09-07T02:25:23;17.70;75.80
1347;DHT22;667;48.796;9.480;2023-09-07T02:27:48;17.70;76.00
1347;DHT22;667;48.796;9.480;2023-09-07T02:30:14;17.70;75.80
1347;DHT22;667;48.796;9.480;2023-09-07T02:32:42;17.70;75.80
1347;DHT22;667;48.796;9.480;2023-09-07T02:35:08;17.70;76.20
1347;DHT22;667;48.796;9.480;2023-09-07T02:37:34;17.60;76.00
1347;DHT22;667;48.796;9.480;2023-09-07T02:40:00;17.60;76.20
1347;DHT22;667;48.796;9.480;2023-09-07T02:42:26;17.60;76.00
1347;DHT22;667;48.796;9.480;2023-09-07T02:44:51;17.60;75.90
1347;DHT22;667;48.796;9.480;2023-09-07T02:47:17;17.60;75.90
1347;DHT22;667;48.796;9.480;2023-09-07T02:49:42;17.60;76.00
1347;DHT22;667;48.796;9.480;2023-09-07T02:52:08;17.60;76.20
1347;DHT22;667;48.796;9.480;2023-09-07T02:54:33;17.50;75.90
1347;DHT22;667;48.796;9.480;2023-09-07T02:56:59;17.50;75.90
1347;DHT22;667;48.796;9.480;2023-09-07T02:59:25;17.50;76.00
1347;DHT22;667;48.796;9.480;2023-09-07T03:01:51;17.50;76.00
1347;DHT22;667;48.796;9.480;2023-09-07T03:04:16;17.50;75.90
1347;DHT22;667;48.796;9.480;2023-09-07T03:06:42;17.50;76.70
1347;DHT22;667;48.796;9.480;2023-09-07T03:09:07;17.40;75.90
1347;DHT22;667;48.796;9.480;2023-09-07T03:11:34;17.40;75.90
1347;DHT22;667;48.796;9.480;2023-09-07T03:14:00;17.40;76.00
1347;DHT22;667;48.796;9.480;2023-09-07T03:16:26;17.40;76.20
1347;DHT22;667;48.796;9.480;2023-09-07T03:18:51;17.40;76.40
1347;DHT22;667;48.796;9.480;2023-09-07T03:21:17;17.40;76.40
1347;DHT22;667;48.796;9.480;2023-09-07T03:23:43;17.40;76.40
1347;DHT22;667;48.796;9.480;2023-09-07T03:26:10;17.40;76.30
1347;DHT22;667;48.796;9.480;2023-09-07T03:28:36;17.40;76.40
1347;DHT22;667;48.796;9.480;2023-09-07T03:31:02;17.40;76.50
1347;DHT22;667;48.796;9.480;2023-09-07T03:33:27;17.30;76.40
1347;DHT22;667;48.796;9.480;2023-09-07T03:35:53;17.30;76.50
1347;DHT22;667;48.796;9.480;2023-09-07T03:38:24;17.30;76.50
1347;DHT22;667;48.796;9.480;2023-09-07T03:40:49;17.30;76.80
1347;DHT22;667;48.796;9.480;2023-09-07T03:43:15;17.30;76.80
1347;DHT22;667;48.796;9.480;2023-09-07T03:45:41;17.30;76.70
1347;DHT22;667;48.796;9.480;2023-09-07T03:48:06;17.30;76.60
1347;DHT22;667;48.796;9.480;2023-09-07T03:50:32;17.30;76.80
1347;DHT22;667;48.796;9.480;2023-09-07T03:52:57;17.30;76.70
1347;DHT22;667;48.796;9.480;2023-09-07T03:55:23;17.30;76.70
1347;DHT22;667;48.796;9.480;2023-09-07T03:57:49;17.30;76.40
1347;DHT22;667;48.796;9.480;2023-09-07T04:00:15;17.20;76.20
1347;DHT22;667;48.796;9.480;2023-09-07T04:02:41;17.20;76.20
1347;DHT22;667;48.796;9.480;2023-09-07T04:05:06;17.20;76.40
1347;DHT22;667;48.796;9.480;2023-09-07T04:07:32;17.20;76.40
1347;DHT22;667;48.796;9.480;2023-09-07T04:09:58;17.20;76.20
1347;DHT22;667;48.796;9.480;2023-09-07T04:12:24;17.10;76.10
1347;DHT22;667;48.796;9.480;2023-09-07T04:14:50;17.10;76.20
1347;DHT22;667;48.796;9.480;2023-09-07T04:17:15;17.10;76.20
1347;DHT22;667;48.796;9.480;2023-09-07T04:19:41;17.10;76.20
1347;DHT22;667;48.796;9.480;2023-09-07T04:22:08;17.10;76.10
1347;DHT22;667;48.796;9.480;2023-09-07T04:24:34;17.10;76.10
1347;DHT22;667;48.796;9.480;2023-09-07T04:27:00;17.10;76.20
1347;DHT22;667;48.796;9.480;2023-09-07T04:29:26;17.00;76.20
1347;DHT22;667;48.796;9.480;2023-09-07T04:31:52;17.00;76.30
1347;DHT22;667;48.796;9.480;2023-09-07T04:34:17;17.00;76.30
1347;DHT22;667;48.796;9.480;2023-09-07T04:36:43;17.00;76.40
1347;DHT22;667;48.796;9.480;2023-09-07T04:39:09;17.00;76.50
1347;DHT22;667;48.796;9.480;2023-09-07T04:41:34;17.00;76.50
1347;DHT22;667;48.796;9.480;2023-09-07T04:44:00;17.00;76.50
1347;DHT22;667;48.796;9.480;2023-09-07T04:46:25;17.00;76.40
1347;DHT22;667;48.796;9.480;2023-09-07T04:48:51;17.00;76.20
1347;DHT22;667;48.796;9.480;2023-09-07T04:51:16;17.00;76.00
1347;DHT22;667;48.796;9.480;2023-09-07T04:53:42;16.90;75.90
1347;DHT22;667;48.796;9.480;2023-09-07T04:56:08;16.90;76.20
1347;DHT22;667;48.796;9.480;2023-09-07T04:58:34;16.90;76.50
1347;DHT22;667;48.796;9.480;2023-09-07T05:01:04;16.90;76.70
1347;DHT22;667;48.796;9.480;2023-09-07T05:03:30;16.90;76.70
1347;DHT22;667;48.796;9.480;2023-09-07T05:05:55;16.90;76.90
1347;DHT22;667;48.796;9.480;2023-09-07T05:08:22;16.90;77.10
1347;DHT22;667;48.796;9.480;2023-09-07T05:10:48;16.90;77.20
1347;DHT22;667;48.796;9.480;2023-09-07T05:13:14;16.90;77.50
1347;DHT22;667;48.796;9.480;2023-09-07T05:15:59;16.90;77.20
1347;DHT22;667;48.796;9.480;2023-09-07T05:18:25;16.90;77.10
1347;DHT22;667;48.796;9.480;2023-09-07T05:20:51;16.90;77.00
1347;DHT22;667;48.796;9.480;2023-09-07T05:23:21;16.90;76.80
1347;DHT22;667;48.796;9.480;2023-09-07T05:25:49;16.90;76.80
1347;DHT22;667;48.796;9.480;2023-09-07T05:28:16;16.90;76.80
1347;DHT22;667;48.796;9.480;2023-09-07T05:30:42;16.90;76.80
1347;DHT22;667;48.796;9.480;2023-09-07T05:33:09;16.90;76.80
1347;DHT22;667;48.796;9.480;2023-09-07T05:35:35;16.90;76.80
1347;DHT22;667;48.796;9.480;2023-09-07T05:38:02;16.90;76.90
1347;DHT22;667;48.796;9.480;2023-09-07T05:40:27;16.90;76.90
1347;DHT22;667;48.796;9.480;2023-09-07T05:42:53;16.90;76.90
1347;DHT22;667;48.796;9.480;2023-09-07T05:45:19;16.90;77.00
1347;DHT22;667;48.796;9.480;2023-09-07T05:47:44;16.90;77.30
1347;DHT22;667;48.796;9.480;2023-09-07T05:50:10;16.90;77.40
1347;DHT22;667;48.796;9.480;2023-09-07T05:52:35;16.90;77.40
1347;DHT22;667;48.796;9.480;2023-09-07T05:55:01;17.00;77.70
1347;DHT22;667;48.796;9.480;2023-09-07T05:57:27;17.00;77.90
1347;DHT22;667;48.796;9.480;2023-09-07T05:59:53;17.00;78.00
1347;DHT22;667;48.796;9.480;2023-09-07T06:02:18;17.00;78.20
1347;DHT22;667;48.796;9.480;2023-09-07T06:04:44;17.10;78.40
1347;DHT22;667;48.796;9.480;2023-09-07T06:07:10;17.10;78.50
1347;DHT22;667;48.796;9.480;2023-09-07T06:09:35;17.10;78.60
1347;DHT22;667;48.796;9.480;2023-09-07T06:12:02;17.20;78.90
1347;DHT22;667;48.796;9.480;2023-09-07T06:14:28;17.20;78.90
1347;DHT22;667;48.796;9.480;2023-09-07T06:16:54;17.20;79.00
1347;DHT22;667;48.796;9.480;2023-09-07T06:19:19;17.30;79.30
1347;DHT22;667;48.796;9.480;2023-09-07T06:21:45;17.30;79.50
1347;DHT22;667;48.796;9.480;2023-09-07T06:24:11;17.30;79.50
1347;DHT22;667;48.796;9.480;2023-09-07T06:26:36;17.40;79.40
1347;DHT22;667;48.796;9.480;2023-09-07T06:29:02;17.50;79.30
1347;DHT22;667;48.796;9.480;2023-09-07T06:31:27;17.50;79.00
1347;DHT22;667;48.796;9.480;2023-09-07T06:33:54;17.60;79.00
1347;DHT22;667;48.796;9.480;2023-09-07T06:36:19;17.60;78.80
1347;DHT22;667;48.796;9.480;2023-09-07T06:38:45;17.70;78.90
1347;DHT22;667;48.796;9.480;2023-09-07T06:41:11;17.70;78.90
1347;DHT22;667;48.796;9.480;2023-09-07T06:43:37;17.80;78.90
1347;DHT22;667;48.796;9.480;2023-09-07T06:46:07;17.90;78.90
1347;DHT22;667;48.796;9.480;2023-09-07T06:48:33;17.90;78.60
1347;DHT22;667;48.796;9.480;2023-09-07T06:51:06;18.00;78.70
1347;DHT22;667;48.796;9.480;2023-09-07T06:53:32;18.00;78.90
1347;DHT22;667;48.796;9.480;2023-09-07T06:56:02;18.10;79.10
1347;DHT22;667;48.796;9.480;2023-09-07T06:58:28;18.10;79.00
1347;DHT22;667;48.796;9.480;2023-09-07T07:01:01;18.20;79.00
1347;DHT22;667;48.796;9.480;2023-09-07T07:03:29;18.20;79.00
1347;DHT22;667;48.796;9.480;2023-09-07T07:05:55;18.30;79.40
1347;DHT22;667;48.796;9.480;2023-09-07T07:08:21;18.40;78.50
1347;DHT22;667;48.796;9.480;2023-09-07T07:10:47;18.40;78.30
1347;DHT22;667;48.796;9.480;2023-09-07T07:13:12;18.50;78.40
1347;DHT22;667;48.796;9.480;2023-09-07T07:15:38;18.60;78.50
1347;DHT22;667;48.796;9.480;2023-09-07T07:18:04;18.60;78.50
1347;DHT22;667;48.796;9.480;2023-09-07T07:20:35;18.70;78.70
1347;DHT22;667;48.796;9.480;2023-09-07T07:23:00;18.80;78.70
1347;DHT22;667;48.796;9.480;2023-09-07T07:25:26;18.80;78.50
1347;DHT22;667;48.796;9.480;2023-09-07T07:27:51;18.90;78.50
1347;DHT22;667;48.796;9.480;2023-09-07T07:30:17;18.90;78.20
1347;DHT22;667;48.796;9.480;2023-09-07T07:32:42;18.90;78.20
1347;DHT22;667;48.796;9.480;2023-09-07T07:35:08;19.00;78.40
1347;DHT22;667;48.796;9.480;2023-09-07T07:37:34;19.10;78.40
1347;DHT22;667;48.796;9.480;2023-09-07T07:39:59;19.10;78.30
1347;DHT22;667;48.796;9.480;2023-09-07T07:42:25;19.20;78.60
1347;DHT22;667;48.796;9.480;2023-09-07T07:44:50;19.30;78.60
1347;DHT22;667;48.796;9.480;2023-09-07T07:47:16;19.40;78.70
1347;DHT22;667;48.796;9.480;2023-09-07T07:49:41;19.50;78.70
1347;DHT22;667;48.796;9.480;2023-09-07T07:52:07;19.60;78.90
1347;DHT22;667;48.796;9.480;2023-09-07T07:54:36;19.70;78.70
1347;DHT22;667;48.796;9.480;2023-09-07T07:59:37;19.90;78.50
1347;DHT22;667;48.796;9.480;2023-09-07T08:02:03;20.00;78.30
1347;DHT22;667;48.796;9.480;2023-09-07T08:05:03;20.10;78.10
1347;DHT22;667;48.796;9.480;2023-09-07T08:07:28;20.30;77.80
1347;DHT22;667;48.796;9.480;2023-09-07T08:09:54;20.30;77.30
1347;DHT22;667;48.796;9.480;2023-09-07T08:12:19;20.40;76.70
1347;DHT22;667;48.796;9.480;2023-09-07T08:14:45;20.50;76.50
1347;DHT22;667;48.796;9.480;2023-09-07T08:17:10;20.60;76.00
1347;DHT22;667;48.796;9.480;2023-09-07T08:19:36;20.70;75.70
1347;DHT22;667;48.796;9.480;2023-09-07T08:22:04;20.80;74.80
1347;DHT22;667;48.796;9.480;2023-09-07T08:24:30;20.90;74.70
1347;DHT22;667;48.796;9.480;2023-09-07T08:26:55;21.00;74.40
1347;DHT22;667;48.796;9.480;2023-09-07T08:29:23;21.10;74.40
1347;DHT22;667;48.796;9.480;2023-09-07T08:31:52;21.20;74.40
1347;DHT22;667;48.796;9.480;2023-09-07T08:34:18;21.30;74.40
1347;DHT22;667;48.796;9.480;2023-09-07T08:36:46;21.40;74.00
1347;DHT22;667;48.796;9.480;2023-09-07T08:39:12;21.40;73.50
1347;DHT22;667;48.796;9.480;2023-09-07T08:41:42;21.40;72.80
1347;DHT22;667;48.796;9.480;2023-09-07T08:44:17;21.50;73.20
1347;DHT22;667;48.796;9.480;2023-09-07T08:46:44;21.60;73.50
1347;DHT22;667;48.796;9.480;2023-09-07T08:49:12;21.80;73.60
1347;DHT22;667;48.796;9.480;2023-09-07T08:51:38;21.80;72.90
1347;DHT22;667;48.796;9.480;2023-09-07T08:54:05;21.90;72.70
1347;DHT22;667;48.796;9.480;2023-09-07T08:56:32;21.90;72.40
1347;DHT22;667;48.796;9.480;2023-09-07T08:59:00;22.00;72.30
1347;DHT22;667;48.796;9.480;2023-09-07T09:01:26;22.10;72.20
1347;DHT22;667;48.796;9.480;2023-09-07T09:03:54;22.10;71.50
1347;DHT22;667;48.796;9.480;2023-09-07T09:06:21;22.20;71.90
1347;DHT22;667;48.796;9.480;2023-09-07T09:08:52;22.30;72.00
1347;DHT22;667;48.796;9.480;2023-09-07T09:11:19;22.40;71.50
1347;DHT22;667;48.796;9.480;2023-09-07T09:13:47;22.50;71.20
1347;DHT22;667;48.796;9.480;2023-09-07T09:16:13;22.60;70.60
1347;DHT22;667;48.796;9.480;2023-09-07T09:18:50;22.70;70.10
1347;DHT22;667;48.796;9.480;2023-09-07T09:21:18;22.80;69.70
1347;DHT22;667;48.796;9.480;2023-09-07T09:23:48;22.90;69.70
1347;DHT22;667;48.796;9.480;2023-09-07T09:26:15;23.00;70.00
1347;DHT22;667;48.796;9.480;2023-09-07T09:28:40;23.10;69.60
1347;DHT22;667;48.796;9.480;2023-09-07T09:31:06;23.20;69.70
1347;DHT22;667;48.796;9.480;2023-09-07T09:33:37;23.40;69.50
1347;DHT22;667;48.796;9.480;2023-09-07T09:36:03;23.50;69.60
1347;DHT22;667;48.796;9.480;2023-09-07T09:38:29;23.60;69.50
1347;DHT22;667;48.796;9.480;2023-09-07T09:40:58;23.70;69.00
1347;DHT22;667;48.796;9.480;2023-09-07T09:43:25;23.90;68.50
1347;DHT22;667;48.796;9.480;2023-09-07T09:45:51;23.90;68.30
1347;DHT22;667;48.796;9.480;2023-09-07T09:48:18;24.10;68.10
1347;DHT22;667;48.796;9.480;2023-09-07T09:50:46;24.20;67.60
1347;DHT22;667;48.796;9.480;2023-09-07T09:53:12;24.20;67.00
1347;DHT22;667;48.796;9.480;2023-09-07T09:55:46;24.30;67.00
1347;DHT22;667;48.796;9.480;2023-09-07T09:58:16;24.50;67.10
1347;DHT22;667;48.796;9.480;2023-09-07T10:00:43;24.60;66.80
1347;DHT22;667;48.796;9.480;2023-09-07T10:03:31;24.70;66.20
1347;DHT22;667;48.796;9.480;2023-09-07T10:06:10;24.80;65.70
1347;DHT22;667;48.796;9.480;2023-09-07T10:08:36;24.90;65.80
1347;DHT22;667;48.796;9.480;2023-09-07T10:11:08;25.10;65.70
1347;DHT22;667;48.796;9.480;2023-09-07T10:13:35;25.20;66.30
1347;DHT22;667;48.796;9.480;2023-09-07T10:16:04;25.30;64.90
1347;DHT22;667;48.796;9.480;2023-09-07T10:18:37;25.40;63.70
1347;DHT22;667;48.796;9.480;2023-09-07T10:21:03;25.50;63.80
1347;DHT22;667;48.796;9.480;2023-09-07T10:23:43;25.60;63.70
1347;DHT22;667;48.796;9.480;2023-09-07T10:28:37;25.80;63.80
1347;DHT22;667;48.796;9.480;2023-09-07T10:31:19;25.90;62.70
1347;DHT22;667;48.796;9.480;2023-09-07T10:33:45;26.10;63.50
1347;DHT22;667;48.796;9.480;2023-09-07T10:36:21;26.20;62.30
1347;DHT22;667;48.796;9.480;2023-09-07T10:38:48;26.30;62.50
1347;DHT22;667;48.796;9.480;2023-09-07T10:41:13;26.40;61.50
1347;DHT22;667;48.796;9.480;2023-09-07T10:43:50;26.50;60.60
1347;DHT22;667;48.796;9.480;2023-09-07T10:46:20;26.60;59.90
1347;DHT22;667;48.796;9.480;2023-09-07T10:48:49;26.70;60.00
1347;DHT22;667;48.796;9.480;2023-09-07T10:51:15;26.80;59.70
1347;DHT22;667;48.796;9.480;2023-09-07T10:53:42;26.80;59.70
1347;DHT22;667;48.796;9.480;2023-09-07T10:56:07;26.90;59.30
1347;DHT22;667;48.796;9.480;2023-09-07T10:58:35;27.00;59.50
1347;DHT22;667;48.796;9.480;2023-09-07T11:01:03;27.10;59.30
1347;DHT22;667;48.796;9.480;2023-09-07T11:03:32;27.10;58.50
1347;DHT22;667;48.796;9.480;2023-09-07T11:08:24;27.30;58.70
1347;DHT22;667;48.796;9.480;2023-09-07T11:10:50;27.40;58.60
1347;DHT22;667;48.796;9.480;2023-09-07T11:13:17;27.50;58.80
1347;DHT22;667;48.796;9.480;2023-09-07T11:15:43;27.60;58.60
1347;DHT22;667;48.796;9.480;2023-09-07T11:18:09;27.70;58.10
1347;DHT22;667;48.796;9.480;2023-09-07T11:20:36;27.70;58.00
1347;DHT22;667;48.796;9.480;2023-09-07T11:23:02;27.80;57.80
1347;DHT22;667;48.796;9.480;2023-09-07T11:25:37;27.90;58.00
1347;DHT22;667;48.796;9.480;2023-09-07T11:28:07;27.90;57.90
1347;DHT22;667;48.796;9.480;2023-09-07T11:30:34;28.00;57.80
1347;DHT22;667;48.796;9.480;2023-09-07T11:33:01;28.00;57.40
1347;DHT22;667;48.796;9.480;2023-09-07T11:35:27;28.10;56.80
1347;DHT22;667;48.796;9.480;2023-09-07T11:37:54;28.10;56.90
1347;DHT22;667;48.796;9.480;2023-09-07T11:40:21;28.20;56.50
1347;DHT22;667;48.796;9.480;2023-09-07T11:42:47;28.20;56.80
1347;DHT22;667;48.796;9.480;2023-09-07T11:45:13;28.30;56.10
1347;DHT22;667;48.796;9.480;2023-09-07T11:47:39;28.40;56.00
1347;DHT22;667;48.796;9.480;2023-09-07T11:50:05;28.40;55.90
1347;DHT22;667;48.796;9.480;2023-09-07T11:52:32;28.40;55.10
1347;DHT22;667;48.796;9.480;2023-09-07T11:54:58;28.50;55.30
1347;DHT22;667;48.796;9.480;2023-09-07T11:57:23;28.50;55.90
1347;DHT22;667;48.796;9.480;2023-09-07T11:59:49;28.60;55.60
1347;DHT22;667;48.796;9.480;2023-09-07T12:02:14;28.60;55.20
1347;DHT22;667;48.796;9.480;2023-09-07T12:04:41;28.70;55.30
1347;DHT22;667;48.796;9.480;2023-09-07T12:07:07;28.80;55.10
1347;DHT22;667;48.796;9.480;2023-09-07T12:09:32;28.80;55.20
1347;DHT22;667;48.796;9.480;2023-09-07T12:11:58;28.80;53.60
1347;DHT22;667;48.796;9.480;2023-09-07T12:14:24;28.80;53.50
1347;DHT22;667;48.796;9.480;2023-09-07T12:16:49;28.90;53.80
1347;DHT22;667;48.796;9.480;2023-09-07T12:19:15;28.90;54.60
1347;DHT22;667;48.796;9.480;2023-09-07T12:21:40;28.90;53.50
1347;DHT22;667;48.796;9.480;2023-09-07T12:24:07;29.00;54.00
1347;DHT22;667;48.796;9.480;2023-09-07T12:26:33;29.00;54.90
1347;DHT22;667;48.796;9.480;2023-09-07T12:28:59;29.10;54.60
1347;DHT22;667;48.796;9.480;2023-09-07T12:31:25;29.20;54.20
1347;DHT22;667;48.796;9.480;2023-09-07T12:33:50;29.20;54.10
1347;DHT22;667;48.796;9.480;2023-09-07T12:36:17;29.20;54.20
1347;DHT22;667;48.796;9.480;2023-09-07T12:38:42;29.20;53.70
1347;DHT22;667;48.796;9.480;2023-09-07T12:41:08;29.20;53.50
1347;DHT22;667;48.796;9.480;2023-09-07T12:43:34;29.20;53.10
1347;DHT22;667;48.796;9.480;2023-09-07T12:45:59;29.20;53.50
1347;DHT22;667;48.796;9.480;2023-09-07T12:48:25;29.30;53.60
1347;DHT22;667;48.796;9.480;2023-09-07T12:50:51;29.30;53.00
1347;DHT22;667;48.796;9.480;2023-09-07T12:53:16;29.20;53.40
1347;DHT22;667;48.796;9.480;2023-09-07T12:55:42;29.20;54.40
1347;DHT22;667;48.796;9.480;2023-09-07T12:58:07;29.30;53.90
1347;DHT22;667;48.796;9.480;2023-09-07T13:00:33;29.30;53.40
1347;DHT22;667;48.796;9.480;2023-09-07T13:02:58;29.30;53.70
1347;DHT22;667;48.796;9.480;2023-09-07T13:05:24;29.20;53.80
1347;DHT22;667;48.796;9.480;2023-09-07T13:07:49;29.30;54.20
1347;DHT22;667;48.796;9.480;2023-09-07T13:10:15;29.30;53.80
1347;DHT22;667;48.796;9.480;2023-09-07T13:12:41;29.30;53.80
1347;DHT22;667;48.796;9.480;2023-09-07T13:15:07;29.30;53.30
1347;DHT22;667;48.796;9.480;2023-09-07T13:17:33;29.40;53.50
1347;DHT22;667;48.796;9.480;2023-09-07T13:19:58;29.40;53.80
1347;DHT22;667;48.796;9.480;2023-09-07T13:22:24;29.40;53.60
1347;DHT22;667;48.796;9.480;2023-09-07T13:24:49;29.40;53.30
1347;DHT22;667;48.796;9.480;2023-09-07T13:27:15;29.40;52.70
1347;DHT22;667;48.796;9.480;2023-09-07T13:29:41;29.40;53.10
1347;DHT22;667;48.796;9.480;2023-09-07T13:32:07;29.40;52.50
1347;DHT22;667;48.796;9.480;2023-09-07T13:34:32;29.40;52.60
1347;DHT22;667;48.796;9.480;2023-09-07T13:36:58;29.40;52.60
1347;DHT22;667;48.796;9.480;2023-09-07T13:39:23;29.40;52.90
1347;DHT22;667;48.796;9.480;2023-09-07T13:41:49;29.40;53.00
1347;DHT22;667;48.796;9.480;2023-09-07T13:44:15;29.40;52.90
1347;DHT22;667;48.796;9.480;2023-09-07T13:46:41;29.40;52.70
1347;DHT22;667;48.796;9.480;2023-09-07T13:49:07;29.40;52.90
1347;DHT22;667;48.796;9.480;2023-09-07T13:51:32;29.40;53.00
1347;DHT22;667;48.796;9.480;2023-09-07T13:54:04;29.40;53.10
1347;DHT22;667;48.796;9.480;2023-09-07T13:56:30;29.40;52.60
1347;DHT22;667;48.796;9.480;2023-09-07T13:58:56;29.40;53.00
1347;DHT22;667;48.796;9.480;2023-09-07T14:01:22;29.40;52.60
1347;DHT22;667;48.796;9.480;2023-09-07T14:03:49;29.40;51.60
1347;DHT22;667;48.796;9.480;2023-09-07T14:06:14;29.40;52.00
1347;DHT22;667;48.796;9.480;2023-09-07T14:08:40;29.40;52.30
1347;DHT22;667;48.796;9.480;2023-09-07T14:11:05;29.40;52.00
1347;DHT22;667;48.796;9.480;2023-09-07T14:13:32;29.30;51.70
1347;DHT22;667;48.796;9.480;2023-09-07T14:16:00;29.30;52.20
1347;DHT22;667;48.796;9.480;2023-09-07T14:18:26;29.30;52.40
1347;DHT22;667;48.796;9.480;2023-09-07T14:20:51;29.30;52.30
1347;DHT22;667;48.796;9.480;2023-09-07T14:23:17;29.30;52.30
1347;DHT22;667;48.796;9.480;2023-09-07T14:25:46;29.40;52.50
1347;DHT22;667;48.796;9.480;2023-09-07T14:28:12;29.30;52.80
1347;DHT22;667;48.796;9.480;2023-09-07T14:30:38;29.30;52.10
1347;DHT22;667;48.796;9.480;2023-09-07T14:33:04;29.30;52.30
1347;DHT22;667;48.796;9.480;2023-09-07T14:35:30;29.20;51.10
1347;DHT22;667;48.796;9.480;2023-09-07T14:37:56;29.10;51.10
1347;DHT22;667;48.796;9.480;2023-09-07T14:40:21;29.10;51.40
1347;DHT22;667;48.796;9.480;2023-09-07T14:42:49;29.10;51.70
1347;DHT22;667;48.796;9.480;2023-09-07T14:45:16;29.10;51.60
1347;DHT22;667;48.796;9.480;2023-09-07T14:47:41;29.00;51.50
1347;DHT22;667;48.796;9.480;2023-09-07T14:50:08;29.00;51.20
1347;DHT22;667;48.796;9.480;2023-09-07T14:52:33;29.00;51.30
1347;DHT22;667;48.796;9.480;2023-09-07T14:55:06;29.00;51.60
1347;DHT22;667;48.796;9.480;2023-09-07T14:57:32;28.90;51.70
1347;DHT22;667;48.796;9.480;2023-09-07T14:59:59;28.90;51.30
1347;DHT22;667;48.796;9.480;2023-09-07T15:02:24;28.90;51.30
1347;DHT22;667;48.796;9.480;2023-09-07T15:04:50;28.90;51.30
1347;DHT22;667;48.796;9.480;2023-09-07T15:07:15;28.80;51.30
1347;DHT22;667;48.796;9.480;2023-09-07T15:09:41;28.80;51.60
1347;DHT22;667;48.796;9.480;2023-09-07T15:12:07;28.70;51.60
1347;DHT22;667;48.796;9.480;2023-09-07T15:14:35;28.70;50.90
1347;DHT22;667;48.796;9.480;2023-09-07T15:17:01;28.70;50.80
1347;DHT22;667;48.796;9.480;2023-09-07T15:19:26;28.60;50.80
1347;DHT22;667;48.796;9.480;2023-09-07T15:21:52;28.60;51.00
1347;DHT22;667;48.796;9.480;2023-09-07T15:24:18;28.60;51.50
1347;DHT22;667;48.796;9.480;2023-09-07T15:26:45;28.60;51.10
1347;DHT22;667;48.796;9.480;2023-09-07T15:29:11;28.60;51.10
1347;DHT22;667;48.796;9.480;2023-09-07T15:31:38;28.60;51.30
1347;DHT22;667;48.796;9.480;2023-09-07T15:34:03;28.60;51.30
1347;DHT22;667;48.796;9.480;2023-09-07T15:36:30;28.60;51.10
1347;DHT22;667;48.796;9.480;2023-09-07T15:38:55;28.50;50.30
1347;DHT22;667;48.796;9.480;2023-09-07T15:41:21;28.50;50.60
1347;DHT22;667;48.796;9.480;2023-09-07T15:43:47;28.50;50.80
1347;DHT22;667;48.796;9.480;2023-09-07T15:46:12;28.50;50.80
1347;DHT22;667;48.796;9.480;2023-09-07T15:48:38;28.40;50.90
1347;DHT22;667;48.796;9.480;2023-09-07T15:51:05;28.40;51.10
1347;DHT22;667;48.796;9.480;2023-09-07T15:53:32;28.40;50.70
1347;DHT22;667;48.796;9.480;2023-09-07T15:55:58;28.40;50.50
1347;DHT22;667;48.796;9.480;2023-09-07T15:58:24;28.40;50.40
1347;DHT22;667;48.796;9.480;2023-09-07T16:00:51;28.40;50.50
1347;DHT22;667;48.796;9.480;2023-09-07T16:03:16;28.30;50.40
1347;DHT22;667;48.796;9.480;2023-09-07T16:05:42;28.20;49.90
1347;DHT22;667;48.796;9.480;2023-09-07T16:08:08;28.30;50.00
1347;DHT22;667;48.796;9.480;2023-09-07T16:10:33;28.20;49.70
1347;DHT22;667;48.796;9.480;2023-09-07T16:13:01;28.20;49.50
1347;DHT22;667;48.796;9.480;2023-09-07T16:15:27;28.10;49.30
1347;DHT22;667;48.796;9.480;2023-09-07T16:17:52;28.20;49.40
1347;DHT22;667;48.796;9.480;2023-09-07T16:20:18;28.10;49.50